Time;durP1;ratioP1;P1;durP2;ratioP2;P2;SDS_P1;SDS_P2;PMS_P1;PMS_P2;Temp;Humidity;BMP_temperature;BMP_pressure;BME280_temperature;BME280_humidity;BME280_pressure;Samples;Min_cycle;Max_cycle;Signal;HPM_P1;HPM_P2
2023/02/02 00:01:46;;;;;;;;;;;8.10;99.90;;;;;;5046545;28;20023;-69
2023/02/02 00:04:15;;;;;;;;;;;8.10;99.90;;;;;;5044565;28;19935;-68
2023/02/02 00:06:42;;;;;;;;;;;8.10;99.90;;;;;;5046805;28;20353;-68
2023/02/02 00:09:09;;;;;;;;;;;8.10;99.90;;;;;;5043812;28;20044;-68
2023/02/02 00:11:35;;;;;;;;;;;8.10;99.90;;;;;;5041228;28;19939;-68
2023/02/02 00:14:03;;;;;;;;;;;8.10;99.90;;;;;;5045567;28;20011;-67
2023/02/02 00:16:35;;;;;;;;;;;8.10;99.90;;;;;;5044559;28;19932;-68
2023/02/02 00:19:03;;;;;;;;;;;8.10;99.90;;;;;;5046149;28;19929;-68
2023/02/02 00:21:30;;;;;;;;;;;8.10;99.90;;;;;;5045923;28;19925;-68
2023/02/02 00:23:57;;;;;;;;;;;8.10;99.90;;;;;;5042729;28;19924;-68
2023/02/02 00:26:23;;;;;;;;;;;8.10;99.90;;;;;;5044158;28;20356;-68
2023/02/02 00:28:50;;;;;;;;;;;8.10;99.90;;;;;;5046111;28;19994;-68
2023/02/02 00:31:18;;;;;;;;;;;8.00;99.90;;;;;;5043436;28;19929;-68
2023/02/02 00:33:45;;;;;;;;;;;8.10;99.90;;;;;;5046615;28;20375;-68
2023/02/02 00:36:12;;;;;;;;;;;8.00;99.90;;;;;;5043682;28;19932;-67
2023/02/02 00:38:38;;;;;;;;;;;8.00;99.90;;;;;;5044108;28;19933;-68
2023/02/02 00:41:06;;;;;;;;;;;8.00;99.90;;;;;;5043192;28;19925;-68
2023/02/02 00:43:32;;;;;;;;;;;8.00;99.90;;;;;;5044794;28;19972;-67
2023/02/02 00:45:58;;;;;;;;;;;8.00;99.90;;;;;;5047688;28;19931;-68
2023/02/02 00:48:26;;;;;;;;;;;8.00;99.90;;;;;;5045788;28;20015;-67
2023/02/02 00:50:53;;;;;;;;;;;8.00;99.90;;;;;;5047720;28;19925;-68
2023/02/02 00:53:20;;;;;;;;;;;8.00;99.90;;;;;;5046971;28;19931;-68
2023/02/02 00:55:46;;;;;;;;;;;8.00;99.90;;;;;;5044894;28;20388;-69
2023/02/02 00:58:13;;;;;;;;;;;8.00;99.90;;;;;;5043230;28;19925;-68
2023/02/02 01:00:40;;;;;;;;;;;7.90;99.90;;;;;;5043455;28;19947;-68
2023/02/02 01:03:06;;;;;;;;;;;7.90;99.90;;;;;;5046734;28;20318;-68
2023/02/02 01:05:34;;;;;;;;;;;7.90;99.90;;;;;;5048017;28;20410;-68
2023/02/02 01:08:01;;;;;;;;;;;7.90;99.90;;;;;;5041954;28;20011;-68
2023/02/02 01:10:28;;;;;;;;;;;7.90;99.90;;;;;;5048848;28;19979;-68
2023/02/02 01:12:54;;;;;;;;;;;7.90;99.90;;;;;;5046424;28;19935;-67
2023/02/02 01:15:21;;;;;;;;;;;7.90;99.90;;;;;;5047949;28;20011;-68
2023/02/02 01:17:48;;;;;;;;;;;7.90;99.90;;;;;;5046040;28;19924;-68
2023/02/02 01:20:16;;;;;;;;;;;7.90;99.90;;;;;;5047410;28;19925;-68
2023/02/02 01:22:44;;;;;;;;;;;7.90;99.90;;;;;;5045357;28;19931;-68
2023/02/02 01:25:10;;;;;;;;;;;7.90;99.90;;;;;;5045788;28;20036;-68
2023/02/02 01:27:37;;;;;;;;;;;7.90;99.90;;;;;;5044935;28;19928;-68
2023/02/02 01:30:04;;;;;;;;;;;7.90;99.90;;;;;;5048213;28;19939;-68
2023/02/02 01:32:32;;;;;;;;;;;7.90;99.90;;;;;;5046450;28;20004;-68
2023/02/02 01:34:58;;;;;;;;;;;7.90;99.90;;;;;;5048534;28;19984;-68
2023/02/02 01:37:25;;;;;;;;;;;7.80;99.90;;;;;;5045463;28;20587;-68
2023/02/02 01:39:53;;;;;;;;;;;7.90;99.90;;;;;;5045496;28;19924;-68
2023/02/02 01:42:21;;;;;;;;;;;7.90;99.90;;;;;;5047372;28;20323;-68
2023/02/02 01:45:05;;;;;;;;;;;7.90;99.90;;;;;;5047956;28;19986;-68
2023/02/02 01:47:33;;;;;;;;;;;7.90;99.90;;;;;;5047099;28;20384;-69
2023/02/02 01:50:00;;;;;;;;;;;7.90;99.90;;;;;;5049168;28;19928;-67
2023/02/02 01:52:29;;;;;;;;;;;7.90;99.90;;;;;;5046411;28;19932;-67
2023/02/02 01:54:58;;;;;;;;;;;7.90;99.90;;;;;;5044620;28;20004;-68
2023/02/02 01:57:27;;;;;;;;;;;7.90;99.90;;;;;;5047175;28;20273;-67
2023/02/02 01:59:54;;;;;;;;;;;7.80;99.90;;;;;;5043211;28;19925;-67
2023/02/02 02:02:21;;;;;;;;;;;7.80;99.90;;;;;;5041496;28;19925;-67
2023/02/02 02:04:49;;;;;;;;;;;7.90;99.90;;;;;;5046285;28;19931;-67
2023/02/02 02:07:16;;;;;;;;;;;7.80;99.90;;;;;;5046299;28;19974;-67
2023/02/02 02:09:43;;;;;;;;;;;7.90;99.90;;;;;;5047678;28;20020;-67
2023/02/02 02:12:14;;;;;;;;;;;7.80;99.90;;;;;;5047511;28;20380;-67
2023/02/02 02:17:43;;;;;;;;;;;7.80;99.90;;;;;;5045924;28;19935;-67
2023/02/02 02:26:35;;;;;;;;;;;7.80;99.90;;;;;;5040760;28;19963;-67
2023/02/02 02:29:13;;;;;;;;;;;7.80;99.90;;;;;;5046287;28;20032;-67
2023/02/02 02:31:56;;;;;;;;;;;7.80;99.90;;;;;;5048274;28;20300;-68
2023/02/02 02:34:28;;;;;;;;;;;7.80;99.90;;;;;;5038170;28;20292;-68
2023/02/02 02:36:59;;;;;;;;;;;7.80;99.90;;;;;;5045541;28;19978;-67
2023/02/02 02:39:27;;;;;;;;;;;7.80;99.90;;;;;;5039160;28;19929;-67
2023/02/02 02:41:57;;;;;;;;;;;7.80;99.90;;;;;;5041083;28;19933;-67
2023/02/02 02:44:24;;;;;;;;;;;7.80;99.90;;;;;;5045170;28;20403;-67
2023/02/02 02:46:53;;;;;;;;;;;7.80;99.90;;;;;;5047424;28;19932;-67
2023/02/02 02:49:19;;;;;;;;;;;7.80;99.90;;;;;;5041473;28;19925;-67
2023/02/02 02:51:47;;;;;;;;;;;7.80;99.90;;;;;;5045088;28;19925;-68
2023/02/02 02:54:17;;;;;;;;;;;7.80;99.90;;;;;;5035131;28;19932;-67
2023/02/02 02:56:56;;;;;;;;;;;7.80;99.90;;;;;;5052220;28;19987;-67
2023/02/02 02:59:29;;;;;;;;;;;7.80;99.90;;;;;;5051248;28;20291;-67
2023/02/02 03:02:04;;;;;;;;;;;7.80;99.90;;;;;;5046461;28;19924;-67
2023/02/02 03:04:34;;;;;;;;;;;7.80;99.90;;;;;;5047622;28;19931;-67
2023/02/02 03:07:04;;;;;;;;;;;7.80;99.90;;;;;;5049795;28;19970;-67
2023/02/02 03:09:33;;;;;;;;;;;7.80;99.90;;;;;;5049272;28;20396;-67
2023/02/02 03:12:00;;;;;;;;;;;7.80;99.90;;;;;;5047990;28;19926;-67
2023/02/02 03:14:27;;;;;;;;;;;7.80;99.90;;;;;;5050240;28;19925;-67
2023/02/02 03:16:54;;;;;;;;;;;7.80;99.90;;;;;;5048938;28;19932;-67
2023/02/02 03:19:22;;;;;;;;;;;7.90;99.90;;;;;;5052062;28;20007;-67
2023/02/02 03:21:49;;;;;;;;;;;7.80;99.90;;;;;;5045270;28;19925;-67
2023/02/02 03:24:15;;;;;;;;;;;7.80;99.90;;;;;;5046290;28;19974;-68
2023/02/02 03:26:42;;;;;;;;;;;7.80;99.90;;;;;;5048493;28;19925;-68
2023/02/02 03:29:09;;;;;;;;;;;7.80;99.90;;;;;;5050545;28;20328;-68
2023/02/02 03:31:35;;;;;;;;;;;7.80;99.90;;;;;;5049366;28;19925;-68
2023/02/02 03:34:02;;;;;;;;;;;7.80;99.90;;;;;;5049759;28;20011;-68
2023/02/02 03:36:30;;;;;;;;;;;7.80;99.90;;;;;;5051333;28;19948;-68
2023/02/02 03:38:57;;;;;;;;;;;7.80;99.90;;;;;;5050439;28;19979;-68
2023/02/02 03:41:24;;;;;;;;;;;7.80;99.90;;;;;;5050158;28;19974;-68
2023/02/02 03:43:51;;;;;;;;;;;7.80;99.90;;;;;;5049118;28;19935;-68
2023/02/02 03:46:18;;;;;;;;;;;7.80;99.90;;;;;;5050346;28;19978;-68
2023/02/02 03:48:44;;;;;;;;;;;7.80;99.90;;;;;;5050646;28;19956;-68
2023/02/02 03:51:12;;;;;;;;;;;7.80;99.90;;;;;;5048372;28;20653;-68
2023/02/02 03:53:43;;;;;;;;;;;7.80;99.90;;;;;;5047919;28;20315;-68
2023/02/02 03:56:09;;;;;;;;;;;7.80;99.90;;;;;;5049088;28;19932;-68
2023/02/02 03:58:36;;;;;;;;;;;7.80;99.90;;;;;;5046860;28;19924;-68
2023/02/02 04:01:03;;;;;;;;;;;7.80;99.90;;;;;;5049538;28;20405;-68
2023/02/02 04:03:30;;;;;;;;;;;7.80;99.90;;;;;;5044918;28;19937;-68
2023/02/02 04:05:57;;;;;;;;;;;7.80;99.90;;;;;;5048449;28;19929;-67
2023/02/02 04:08:23;;;;;;;;;;;7.80;99.90;;;;;;5048148;28;19939;-67
2023/02/02 04:10:51;;;;;;;;;;;7.80;99.90;;;;;;5049629;28;20088;-68
2023/02/02 04:13:18;;;;;;;;;;;7.80;99.90;;;;;;5047607;28;19931;-68
2023/02/02 04:15:45;;;;;;;;;;;7.80;99.90;;;;;;5045708;28;20167;-68
2023/02/02 04:18:11;;;;;;;;;;;7.80;99.90;;;;;;5042689;28;19935;-67
2023/02/02 04:20:38;;;;;;;;;;;7.90;99.90;;;;;;5050262;28;20307;-68
2023/02/02 04:23:05;;;;;;;;;;;7.80;99.90;;;;;;5046225;28;20295;-68
2023/02/02 04:25:31;;;;;;;;;;;7.80;99.90;;;;;;5049898;28;20363;-68
2023/02/02 04:27:59;;;;;;;;;;;7.80;99.90;;;;;;5045864;28;21490;-68
2023/02/02 04:30:26;;;;;;;;;;;7.80;99.90;;;;;;5045743;28;20476;-68
2023/02/02 04:32:53;;;;;;;;;;;7.80;99.90;;;;;;5046854;28;19989;-67
2023/02/02 04:35:19;;;;;;;;;;;7.80;99.90;;;;;;5042757;28;20373;-67
2023/02/02 04:37:46;;;;;;;;;;;7.80;99.90;;;;;;5048367;28;20372;-68
2023/02/02 04:40:13;;;;;;;;;;;7.90;99.90;;;;;;5040579;28;20452;-67
2023/02/02 04:42:40;;;;;;;;;;;7.80;99.90;;;;;;5047624;28;20320;-68
2023/02/02 04:45:08;;;;;;;;;;;7.90;99.90;;;;;;5045568;28;20445;-68
2023/02/02 04:47:35;;;;;;;;;;;7.90;99.90;;;;;;5047017;28;20303;-68
2023/02/02 04:50:02;;;;;;;;;;;7.80;99.90;;;;;;5050070;28;20389;-67
2023/02/02 04:52:28;;;;;;;;;;;7.80;99.90;;;;;;5047302;28;20360;-68
2023/02/02 04:54:55;;;;;;;;;;;7.90;99.90;;;;;;5045553;28;20310;-67
2023/02/02 04:57:22;;;;;;;;;;;7.90;99.90;;;;;;5045147;28;19971;-67
2023/02/02 04:59:48;;;;;;;;;;;7.90;99.90;;;;;;5045468;28;20004;-68
2023/02/02 05:02:16;;;;;;;;;;;7.90;99.90;;;;;;5046573;28;19931;-68
2023/02/02 05:04:43;;;;;;;;;;;7.90;99.90;;;;;;5039321;28;20004;-67
2023/02/02 05:07:09;;;;;;;;;;;7.90;99.90;;;;;;5048310;28;19931;-67
2023/02/02 05:09:36;;;;;;;;;;;7.90;99.90;;;;;;5047332;28;19925;-67
2023/02/02 05:12:03;;;;;;;;;;;7.80;99.90;;;;;;5047322;28;19935;-67
2023/02/02 05:14:30;;;;;;;;;;;7.80;99.90;;;;;;5046339;28;19931;-68
2023/02/02 05:16:56;;;;;;;;;;;7.80;99.90;;;;;;5047750;28;19968;-68
2023/02/02 05:19:24;;;;;;;;;;;7.80;99.90;;;;;;5046713;28;19928;-67
2023/02/02 05:21:53;;;;;;;;;;;7.90;99.90;;;;;;5046562;28;19933;-67
2023/02/02 05:24:20;;;;;;;;;;;7.80;99.90;;;;;;5046674;28;20356;-67
2023/02/02 05:26:46;;;;;;;;;;;7.80;99.90;;;;;;5046116;28;19931;-67
2023/02/02 05:29:13;;;;;;;;;;;7.80;99.90;;;;;;5045852;28;19939;-68
2023/02/02 05:31:40;;;;;;;;;;;7.80;99.90;;;;;;5045588;28;20027;-67
2023/02/02 05:34:10;;;;;;;;;;;7.90;99.90;;;;;;5043631;28;19925;-67
2023/02/02 05:36:38;;;;;;;;;;;7.80;99.90;;;;;;5046221;28;19948;-67
2023/02/02 05:39:04;;;;;;;;;;;7.80;99.90;;;;;;5049141;28;19931;-67
2023/02/02 05:41:31;;;;;;;;;;;7.80;99.90;;;;;;5044521;28;20276;-68
2023/02/02 05:43:58;;;;;;;;;;;7.80;99.90;;;;;;5045611;28;20023;-68
2023/02/02 05:46:25;;;;;;;;;;;7.80;99.90;;;;;;5048595;28;19939;-67
2023/02/02 05:48:52;;;;;;;;;;;7.80;99.90;;;;;;5047229;28;20020;-67
2023/02/02 05:51:20;;;;;;;;;;;7.80;99.90;;;;;;5048689;28;19938;-67
2023/02/02 05:53:48;;;;;;;;;;;7.80;99.90;;;;;;5046100;28;19971;-67
2023/02/02 05:56:15;;;;;;;;;;;7.80;99.90;;;;;;5048589;28;19925;-68
2023/02/02 05:58:42;;;;;;;;;;;7.80;99.90;;;;;;5046399;28;19932;-67
2023/02/02 06:01:09;;;;;;;;;;;7.70;99.90;;;;;;5047818;28;20348;-67
2023/02/02 06:03:39;;;;;;;;;;;7.80;99.90;;;;;;5046101;28;19925;-68
2023/02/02 06:06:06;;;;;;;;;;;7.80;99.90;;;;;;5047385;28;20017;-68
2023/02/02 06:08:32;;;;;;;;;;;7.80;99.90;;;;;;5046999;28;19925;-68
2023/02/02 06:11:00;;;;;;;;;;;7.70;99.90;;;;;;5043669;28;19925;-69
2023/02/02 06:13:27;;;;;;;;;;;7.70;99.90;;;;;;5044090;28;19925;-69
2023/02/02 06:15:54;;;;;;;;;;;7.80;99.90;;;;;;5035267;28;19936;-69
2023/02/02 06:18:21;;;;;;;;;;;7.70;99.90;;;;;;5044321;28;19939;-68
2023/02/02 06:20:48;;;;;;;;;;;7.80;99.90;;;;;;5041481;28;19929;-69
2023/02/02 06:23:15;;;;;;;;;;;7.80;99.90;;;;;;5041481;28;20032;-68
2023/02/02 06:25:42;;;;;;;;;;;7.80;99.90;;;;;;5043132;28;19925;-68
2023/02/02 06:28:10;;;;;;;;;;;7.80;99.90;;;;;;5042762;28;19940;-69
2023/02/02 06:30:37;;;;;;;;;;;7.80;99.90;;;;;;5044491;28;20362;-69
2023/02/02 06:33:03;;;;;;;;;;;7.80;99.90;;;;;;5040616;28;20336;-68
2023/02/02 06:35:30;;;;;;;;;;;7.80;99.90;;;;;;5040856;28;19970;-69
2023/02/02 06:37:58;;;;;;;;;;;7.80;99.90;;;;;;5042632;28;19976;-68
2023/02/02 06:40:26;;;;;;;;;;;7.80;99.90;;;;;;5043611;28;20027;-68
2023/02/02 06:42:55;;;;;;;;;;;7.70;99.90;;;;;;5042430;28;19924;-69
2023/02/02 06:45:23;;;;;;;;;;;7.80;99.90;;;;;;5045225;28;21421;-69
2023/02/02 06:47:50;;;;;;;;;;;7.70;99.90;;;;;;5042199;28;20024;-69
2023/02/02 06:50:17;;;;;;;;;;;7.70;99.90;;;;;;5037170;28;20380;-68
2023/02/02 06:52:46;;;;;;;;;;;7.70;99.90;;;;;;5037141;28;19925;-69
2023/02/02 06:55:13;;;;;;;;;;;7.70;99.90;;;;;;5036632;28;19925;-68
2023/02/02 06:57:40;;;;;;;;;;;7.80;99.90;;;;;;5032208;28;19936;-68
2023/02/02 07:00:08;;;;;;;;;;;7.80;99.90;;;;;;5041308;28;19937;-68
2023/02/02 07:02:36;;;;;;;;;;;7.70;99.90;;;;;;5038477;28;19932;-68
2023/02/02 07:05:03;;;;;;;;;;;7.80;99.90;;;;;;5041749;28;19925;-68
2023/02/02 07:07:31;;;;;;;;;;;7.70;99.90;;;;;;5039970;28;19977;-68
2023/02/02 07:09:58;;;;;;;;;;;7.80;99.90;;;;;;5042625;28;20303;-67
2023/02/02 07:12:25;;;;;;;;;;;7.80;99.90;;;;;;5034417;28;19932;-68
2023/02/02 07:14:52;;;;;;;;;;;7.80;99.90;;;;;;5037690;28;19933;-67
2023/02/02 07:17:19;;;;;;;;;;;7.80;99.90;;;;;;5038387;28;20384;-66
2023/02/02 07:19:47;;;;;;;;;;;7.80;99.90;;;;;;5038295;28;19931;-66
2023/02/02 07:22:14;;;;;;;;;;;7.80;99.90;;;;;;5042403;28;19948;-71
2023/02/02 07:24:43;;;;;;;;;;;7.80;99.90;;;;;;5045942;28;19937;-70
2023/02/02 07:27:10;;;;;;;;;;;7.80;99.90;;;;;;5044977;28;19968;-68
2023/02/02 07:29:36;;;;;;;;;;;7.90;99.90;;;;;;5045620;28;19925;-68
2023/02/02 07:32:03;;;;;;;;;;;7.90;99.90;;;;;;5044125;28;19929;-68
2023/02/02 07:34:30;;;;;;;;;;;7.90;99.90;;;;;;5039960;28;20031;-68
2023/02/02 07:36:58;;;;;;;;;;;7.90;99.90;;;;;;5042138;28;20490;-68
2023/02/02 07:39:25;;;;;;;;;;;7.90;99.90;;;;;;5042578;28;19960;-68
2023/02/02 07:41:51;;;;;;;;;;;7.80;99.90;;;;;;5043477;28;19956;-67
2023/02/02 07:44:18;;;;;;;;;;;7.90;99.90;;;;;;5049492;28;20012;-69
2023/02/02 07:46:45;;;;;;;;;;;7.90;99.90;;;;;;5044147;28;19962;-68
2023/02/02 07:49:13;;;;;;;;;;;7.90;99.90;;;;;;5048414;28;19933;-68
2023/02/02 07:51:39;;;;;;;;;;;7.90;99.90;;;;;;5048428;28;19925;-68
2023/02/02 07:54:07;;;;;;;;;;;7.90;99.90;;;;;;5049669;28;19925;-69
2023/02/02 07:56:34;;;;;;;;;;;7.90;99.90;;;;;;5047488;28;20357;-68
2023/02/02 07:59:01;;;;;;;;;;;7.90;99.90;;;;;;5038159;28;20023;-68
2023/02/02 08:01:28;;;;;;;;;;;7.90;99.90;;;;;;5048953;28;20027;-68
2023/02/02 08:03:55;;;;;;;;;;;8.00;99.90;;;;;;5043814;28;19925;-68
2023/02/02 08:06:23;;;;;;;;;;;8.00;99.90;;;;;;5046697;28;19979;-69
2023/02/02 08:08:50;;;;;;;;;;;8.00;99.90;;;;;;5045007;28;19929;-69
2023/02/02 08:11:20;;;;;;;;;;;8.00;99.90;;;;;;5048613;28;19964;-69
2023/02/02 08:13:48;;;;;;;;;;;8.10;99.90;;;;;;5041497;28;20300;-70
2023/02/02 08:16:15;;;;;;;;;;;8.10;99.90;;;;;;5040560;28;19928;-70
2023/02/02 08:18:42;;;;;;;;;;;8.10;99.90;;;;;;5046226;28;19979;-70
2023/02/02 08:21:09;;;;;;;;;;;8.20;99.90;;;;;;5047094;28;19968;-70
2023/02/02 08:23:36;;;;;;;;;;;8.20;99.90;;;;;;5040101;28;20651;-70
2023/02/02 08:26:08;;;;;;;;;;;8.40;99.90;;;;;;5045013;28;20379;-71
2023/02/02 08:28:36;;;;;;;;;;;8.40;99.90;;;;;;5046685;28;19931;-70
2023/02/02 08:31:07;;;;;;;;;;;8.50;99.90;;;;;;5047052;28;20450;-70
2023/02/02 08:33:33;;;;;;;;;;;8.70;99.90;;;;;;5044973;28;20306;-67
2023/02/02 08:36:00;;;;;;;;;;;8.70;99.90;;;;;;5041131;28;19974;-68
2023/02/02 08:38:27;;;;;;;;;;;8.70;99.90;;;;;;5045790;28;19925;-67
2023/02/02 08:40:54;;;;;;;;;;;8.70;99.90;;;;;;5047246;28;20415;-67
2023/02/02 08:43:20;;;;;;;;;;;8.60;99.90;;;;;;5038810;28;20422;-68
2023/02/02 08:45:50;;;;;;;;;;;8.60;99.90;;;;;;5043781;28;19929;-68
2023/02/02 08:48:18;;;;;;;;;;;8.50;99.90;;;;;;5040947;28;19978;-68
2023/02/02 08:50:45;;;;;;;;;;;8.50;99.90;;;;;;5041693;28;19940;-69
2023/02/02 08:53:11;;;;;;;;;;;8.50;99.90;;;;;;5041228;28;19983;-69
2023/02/02 08:55:38;;;;;;;;;;;8.40;99.90;;;;;;5041484;28;19925;-68
2023/02/02 08:58:05;;;;;;;;;;;8.40;99.90;;;;;;5041200;28;20008;-69
2023/02/02 09:00:31;;;;;;;;;;;8.40;99.90;;;;;;5035557;28;20013;-68
2023/02/02 09:03:00;;;;;;;;;;;8.50;99.90;;;;;;5038473;28;19964;-68
2023/02/02 09:05:26;;;;;;;;;;;8.50;99.90;;;;;;5041592;28;19933;-69
2023/02/02 09:07:53;;;;;;;;;;;8.40;99.90;;;;;;5046488;28;19925;-70
2023/02/02 09:10:20;;;;;;;;;;;8.40;99.90;;;;;;5046177;28;20292;-70
2023/02/02 09:12:46;;;;;;;;;;;8.40;99.90;;;;;;5044106;28;20579;-69
2023/02/02 09:15:13;;;;;;;;;;;8.40;99.90;;;;;;5040013;28;20296;-70
2023/02/02 09:17:40;;;;;;;;;;;8.80;99.90;;;;;;5039830;28;19925;-70
2023/02/02 09:20:09;;;;;;;;;;;9.10;99.90;;;;;;5039163;28;19933;-70
2023/02/02 09:22:36;;;;;;;;;;;10.30;99.90;;;;;;5044762;28;20039;-70
2023/02/02 09:25:03;;;;;;;;;;;11.20;99.90;;;;;;5047063;28;19928;-70
2023/02/02 09:27:29;;;;;;;;;;;11.60;99.90;;;;;;5042893;28;20019;-70
2023/02/02 09:29:56;;;;;;;;;;;11.20;99.90;;;;;;5037613;28;19967;-70
2023/02/02 09:32:22;;;;;;;;;;;11.10;99.90;;;;;;5040779;28;19925;-71
2023/02/02 09:34:49;;;;;;;;;;;11.50;99.90;;;;;;5043237;28;19940;-70
2023/02/02 09:37:17;;;;;;;;;;;12.40;99.90;;;;;;5043871;28;20020;-70
2023/02/02 09:39:44;;;;;;;;;;;12.20;99.90;;;;;;5037185;28;19924;-70
2023/02/02 09:42:30;;;;;;;;;;;11.80;99.90;;;;;;5046866;28;20388;-70
2023/02/02 09:45:01;;;;;;;;;;;11.00;99.90;;;;;;5041353;28;20471;-67
2023/02/02 09:47:36;;;;;;;;;;;10.40;99.90;;;;;;5043373;28;20362;-67
2023/02/02 09:50:05;;;;;;;;;;;10.00;99.90;;;;;;5042129;28;19925;-68
2023/02/02 09:52:38;;;;;;;;;;;9.90;99.90;;;;;;5045972;28;19932;-68
2023/02/02 09:55:07;;;;;;;;;;;9.70;99.90;;;;;;5044909;28;19932;-67
2023/02/02 09:57:37;;;;;;;;;;;9.70;99.90;;;;;;5045564;28;19931;-68
2023/02/02 10:00:05;;;;;;;;;;;9.70;99.90;;;;;;5039259;28;19933;-70
2023/02/02 10:02:37;;;;;;;;;;;9.60;99.90;;;;;;5039169;28;19924;-69
2023/02/02 10:05:10;;;;;;;;;;;9.60;99.90;;;;;;5043175;28;19972;-70
2023/02/02 10:07:40;;;;;;;;;;;9.60;99.90;;;;;;5043379;28;19986;-70
2023/02/02 10:10:12;;;;;;;;;;;9.80;99.90;;;;;;5046187;28;20331;-71
2023/02/02 10:12:46;;;;;;;;;;;9.80;99.90;;;;;;5041800;28;20269;-69
2023/02/02 10:15:17;;;;;;;;;;;9.70;99.90;;;;;;5047345;28;19932;-70
2023/02/02 10:17:45;;;;;;;;;;;9.70;99.90;;;;;;5045471;28;19933;-70
2023/02/02 10:20:17;;;;;;;;;;;9.70;99.90;;;;;;5039718;28;19929;-69
2023/02/02 10:22:46;;;;;;;;;;;9.80;99.90;;;;;;5045821;28;22191;-70
2023/02/02 10:25:14;;;;;;;;;;;10.00;99.90;;;;;;5044113;28;20016;-76
2023/02/02 10:27:45;;;;;;;;;;;10.00;99.90;;;;;;5043249;28;20373;-70
2023/02/02 10:30:16;;;;;;;;;;;10.00;99.90;;;;;;5043726;28;19924;-69
2023/02/02 10:32:47;;;;;;;;;;;10.10;99.90;;;;;;5046636;28;19963;-69
2023/02/02 10:35:25;;;;;;;;;;;10.00;99.90;;;;;;5046092;28;19972;-71
2023/02/02 10:37:56;;;;;;;;;;;10.00;99.90;;;;;;5044760;28;20215;-69
2023/02/02 10:40:30;;;;;;;;;;;10.10;99.90;;;;;;5048947;28;19925;-70
2023/02/02 10:45:59;;;;;;;;;;;10.40;99.90;;;;;;5041029;28;20021;-69
2023/02/02 10:48:31;;;;;;;;;;;10.40;99.90;;;;;;5036850;28;19986;-70
2023/02/02 10:50:59;;;;;;;;;;;10.50;99.90;;;;;;5045782;28;19947;-70
2023/02/02 10:53:28;;;;;;;;;;;10.50;99.90;;;;;;5037882;28;19983;-70
2023/02/02 10:55:56;;;;;;;;;;;10.30;99.90;;;;;;5037345;28;20096;-69
2023/02/02 10:58:26;;;;;;;;;;;10.30;99.90;;;;;;5044074;28;19970;-70
2023/02/02 11:00:54;;;;;;;;;;;10.30;99.90;;;;;;5040600;28;19960;-70
2023/02/02 11:03:22;;;;;;;;;;;10.40;99.90;;;;;;5042108;28;19967;-70
2023/02/02 11:08:36;;;;;;;;;;;10.30;99.90;;;;;;5040604;28;19931;-71
2023/02/02 11:11:10;;;;;;;;;;;10.30;99.90;;;;;;5034920;28;20327;-69
2023/02/02 11:13:39;;;;;;;;;;;10.30;99.90;;;;;;5041024;28;19932;-70
2023/02/02 11:16:20;;;;;;;;;;;10.40;99.90;;;;;;5039724;28;20019;-70
2023/02/02 11:18:47;;;;;;;;;;;10.50;99.90;;;;;;5045348;28;20002;-71
2023/02/02 11:21:18;;;;;;;;;;;10.60;99.90;;;;;;5050035;28;19929;-70
2023/02/02 11:23:52;;;;;;;;;;;10.60;99.90;;;;;;5048173;28;20035;-70
2023/02/02 11:26:18;;;;;;;;;;;10.50;99.90;;;;;;5042279;28;19960;-68
2023/02/02 11:28:48;;;;;;;;;;;10.60;99.90;;;;;;5046800;28;20388;-70
2023/02/02 11:31:29;;;;;;;;;;;10.50;99.90;;;;;;5047433;28;19925;-70
2023/02/02 11:34:08;;;;;;;;;;;10.60;99.90;;;;;;5045327;28;19925;-71
2023/02/02 11:36:34;;;;;;;;;;;10.50;99.90;;;;;;5046024;28;19928;-70
2023/02/02 11:39:16;;;;;;;;;;;10.50;99.90;;;;;;5049294;28;20024;-70
2023/02/02 11:41:42;;;;;;;;;;;10.60;99.90;;;;;;5047399;28;20011;-70
2023/02/02 11:44:16;;;;;;;;;;;10.70;99.90;;;;;;5043710;28;19925;-69
2023/02/02 11:46:43;;;;;;;;;;;10.90;99.90;;;;;;5039373;28;20344;-71
2023/02/02 11:49:15;;;;;;;;;;;11.20;99.90;;;;;;5046478;28;19965;-70
2023/02/02 11:51:42;;;;;;;;;;;11.20;99.90;;;;;;5046411;28;20513;-69
2023/02/02 11:54:16;;;;;;;;;;;11.10;99.90;;;;;;5041348;28;20384;-70
2023/02/02 11:56:48;;;;;;;;;;;11.00;99.90;;;;;;5043714;28;20384;-70
2023/02/02 11:59:27;;;;;;;;;;;11.00;99.90;;;;;;5048856;28;20463;-70
2023/02/02 12:02:10;;;;;;;;;;;11.20;99.90;;;;;;5045501;28;20043;-69
2023/02/02 12:04:37;;;;;;;;;;;11.10;99.90;;;;;;5048720;28;20020;-70
2023/02/02 12:07:17;;;;;;;;;;;11.00;99.90;;;;;;5036866;28;20368;-72
2023/02/02 12:09:44;;;;;;;;;;;10.90;99.90;;;;;;5053359;28;19924;-69
2023/02/02 12:12:20;;;;;;;;;;;11.00;99.90;;;;;;5044958;28;19925;-70
2023/02/02 12:14:50;;;;;;;;;;;11.00;99.90;;;;;;5044858;28;19959;-71
2023/02/02 12:17:23;;;;;;;;;;;11.00;99.90;;;;;;5044388;28;19933;-70
2023/02/02 12:19:57;;;;;;;;;;;11.10;99.90;;;;;;5044336;28;19925;-71
2023/02/02 12:22:31;;;;;;;;;;;11.20;99.90;;;;;;5047584;28;19964;-70
2023/02/02 12:25:01;;;;;;;;;;;11.10;99.90;;;;;;5047224;28;20510;-70
2023/02/02 12:27:34;;;;;;;;;;;11.10;99.90;;;;;;5044892;28;19939;-71
2023/02/02 12:30:14;;;;;;;;;;;11.00;99.90;;;;;;5047130;28;19939;-71
2023/02/02 12:32:46;;;;;;;;;;;11.00;99.90;;;;;;5046264;28;19972;-70
2023/02/02 12:35:23;;;;;;;;;;;10.90;99.90;;;;;;5049541;28;19943;-70
2023/02/02 12:37:54;;;;;;;;;;;10.90;99.90;;;;;;5051976;28;20376;-69
2023/02/02 12:40:28;;;;;;;;;;;10.80;99.90;;;;;;5048998;28;20024;-70
2023/02/02 12:43:04;;;;;;;;;;;10.60;99.90;;;;;;5039997;28;19979;-70
2023/02/02 12:45:47;;;;;;;;;;;10.60;99.90;;;;;;5048156;28;20003;-70
2023/02/02 12:48:22;;;;;;;;;;;10.50;99.90;;;;;;5046043;28;19925;-72
2023/02/02 12:50:57;;;;;;;;;;;10.50;99.90;;;;;;5040009;28;20289;-71
2023/02/02 12:53:30;;;;;;;;;;;10.50;99.90;;;;;;5041881;28;19929;-70
2023/02/02 12:56:02;;;;;;;;;;;10.50;99.90;;;;;;5046023;28;20020;-71
2023/02/02 12:58:33;;;;;;;;;;;10.50;99.90;;;;;;5043709;28;19924;-70
2023/02/02 13:01:17;;;;;;;;;;;10.50;99.90;;;;;;5048395;28;19933;-69
2023/02/02 13:03:52;;;;;;;;;;;10.50;99.90;;;;;;5042421;28;19933;-70
2023/02/02 13:06:43;;;;;;;;;;;10.60;99.90;;;;;;5043795;28;19956;-70
2023/02/02 13:09:13;;;;;;;;;;;10.50;99.90;;;;;;5022246;28;20497;-71
2023/02/02 13:11:43;;;;;;;;;;;10.50;99.90;;;;;;5040984;28;20392;-70
2023/02/02 13:14:15;;;;;;;;;;;10.60;99.90;;;;;;5045726;28;19975;-70
2023/02/02 13:16:47;;;;;;;;;;;10.80;99.90;;;;;;5042131;28;19925;-69
2023/02/02 13:19:15;;;;;;;;;;;10.80;99.90;;;;;;5037280;28;19933;-69
2023/02/02 13:21:45;;;;;;;;;;;10.70;99.90;;;;;;5044818;28;20011;-70
2023/02/02 13:24:15;;;;;;;;;;;10.60;99.90;;;;;;5047878;28;20016;-70
2023/02/02 13:26:43;;;;;;;;;;;10.50;99.90;;;;;;5046950;28;19925;-70
2023/02/02 13:29:18;;;;;;;;;;;10.50;99.90;;;;;;5045165;28;20301;-70
2023/02/02 13:31:48;;;;;;;;;;;10.50;99.90;;;;;;5041441;28;19971;-70
2023/02/02 13:34:16;;;;;;;;;;;10.60;99.90;;;;;;5049541;28;19925;-69
2023/02/02 13:36:46;;;;;;;;;;;10.50;99.90;;;;;;5046934;28;19983;-69
2023/02/02 13:39:15;;;;;;;;;;;10.50;99.90;;;;;;5039625;28;19932;-70
2023/02/02 13:41:43;;;;;;;;;;;10.60;99.90;;;;;;5046551;28;20070;-70
2023/02/02 13:44:13;;;;;;;;;;;10.80;99.90;;;;;;5049327;28;19932;-68
2023/02/02 13:46:43;;;;;;;;;;;10.80;99.90;;;;;;5044674;28;19925;-69
2023/02/02 13:49:12;;;;;;;;;;;10.70;99.90;;;;;;5043160;28;19931;-70
2023/02/02 13:51:56;;;;;;;;;;;10.70;99.90;;;;;;5045391;28;20020;-69
2023/02/02 13:54:38;;;;;;;;;;;10.50;99.90;;;;;;5045808;28;19931;-70
2023/02/02 13:57:12;;;;;;;;;;;10.50;99.90;;;;;;5041044;28;19987;-70
2023/02/02 13:59:55;;;;;;;;;;;10.50;99.90;;;;;;5047356;28;20307;-73
2023/02/02 14:02:27;;;;;;;;;;;10.50;99.90;;;;;;5037508;28;19986;-69
2023/02/02 14:04:55;;;;;;;;;;;10.60;99.90;;;;;;5036885;28;20500;-70
2023/02/02 14:07:27;;;;;;;;;;;10.40;99.90;;;;;;5041101;28;19979;-71
2023/02/02 14:09:55;;;;;;;;;;;10.40;99.90;;;;;;5031192;28;21031;-70
2023/02/02 14:12:30;;;;;;;;;;;10.30;99.90;;;;;;5038041;28;19935;-69
2023/02/02 14:14:57;;;;;;;;;;;10.30;99.90;;;;;;5033339;28;19931;-71
2023/02/02 14:17:42;;;;;;;;;;;10.30;99.90;;;;;;5033831;28;19926;-72
2023/02/02 14:20:32;;;;;;;;;;;10.20;99.90;;;;;;5040002;28;19925;-70
2023/02/02 14:23:00;;;;;;;;;;;10.10;99.90;;;;;;5040975;28;19952;-71
2023/02/02 14:25:43;;;;;;;;;;;9.90;99.90;;;;;;5044174;28;19925;-70
2023/02/02 14:28:11;;;;;;;;;;;9.90;99.90;;;;;;5031752;28;20443;-70
2023/02/02 14:30:39;;;;;;;;;;;9.90;99.90;;;;;;5035847;28;19925;-72
2023/02/02 14:33:24;;;;;;;;;;;9.80;99.90;;;;;;5037138;28;19990;-70
2023/02/02 14:35:56;;;;;;;;;;;9.80;99.90;;;;;;5038129;28;20497;-71
2023/02/02 14:38:32;;;;;;;;;;;9.70;99.90;;;;;;5047026;28;19933;-74
2023/02/02 14:41:03;;;;;;;;;;;9.60;99.90;;;;;;5049083;28;19998;-70
2023/02/02 14:43:44;;;;;;;;;;;9.60;99.90;;;;;;5046419;28;20013;-71
2023/02/02 14:46:26;;;;;;;;;;;9.60;99.90;;;;;;5041850;28;20406;-71
2023/02/02 14:49:13;;;;;;;;;;;9.60;99.90;;;;;;5039359;28;19932;-71
2023/02/02 14:51:46;;;;;;;;;;;9.50;99.90;;;;;;5045291;28;19925;-74
2023/02/02 14:54:19;;;;;;;;;;;9.60;99.90;;;;;;5036799;28;19925;-71